createdAt,value
2023-04-04T00:02:19.864Z,61.69
2023-04-04T00:07:22.527Z,61.03
2023-04-04T00:12:28.369Z,62.29
2023-04-04T00:17:31.619Z,61.99
2023-04-04T00:22:33.782Z,61.95
2023-04-04T00:27:35.912Z,62.31
2023-04-04T00:32:38.281Z,62.05
2023-04-04T00:37:40.666Z,62.17
2023-04-04T00:42:43.153Z,62.73
2023-04-04T00:47:46.254Z,63.46
2023-04-04T00:52:48.655Z,65.69
2023-04-04T00:57:51.408Z,66.30
2023-04-04T01:02:54.036Z,65.73
2023-04-04T01:07:58.597Z,65.94
2023-04-04T01:13:01.774Z,65.54
2023-04-04T01:18:07.048Z,64.68
2023-04-04T01:23:10.618Z,62.88
2023-04-04T01:28:13.630Z,64.20
2023-04-04T01:33:28.747Z,64.08
2023-04-04T01:39:03.945Z,64.65
2023-04-04T01:44:06.650Z,64.28
2023-04-04T01:49:10.848Z,64.43
2023-04-04T01:54:13.976Z,64.88
2023-04-04T01:59:16.747Z,64.22
2023-04-04T02:04:20.440Z,65.17
2023-04-04T02:09:22.903Z,64.17
2023-04-04T02:14:25.558Z,64.97
2023-04-04T02:19:29.117Z,64.33
2023-04-04T02:24:31.419Z,66.45
2023-04-04T02:29:33.766Z,67.11
2023-04-04T02:34:36.118Z,65.54
2023-04-04T02:39:38.318Z,66.05
2023-04-04T02:44:40.598Z,66.27
2023-04-04T02:49:45.735Z,66.26
2023-04-04T02:54:49.832Z,66.26
2023-04-04T03:00:04.601Z,66.05
2023-04-04T03:05:07.989Z,64.33
2023-04-04T03:10:10.643Z,65.94
2023-04-04T03:15:13.014Z,64.77
2023-04-04T03:20:16.311Z,66.33
2023-04-04T03:25:24.332Z,67.02
2023-04-04T03:30:27.348Z,65.87
2023-04-04T03:35:30.635Z,64.70
2023-04-04T03:40:33.000Z,65.19
2023-04-04T03:45:38.542Z,65.64
2023-04-04T03:50:41.766Z,65.47
2023-04-04T03:55:49.657Z,64.62
2023-04-04T04:00:52.222Z,65.45
2023-04-04T04:05:55.502Z,65.23
2023-04-04T04:11:03.516Z,64.35
2023-04-04T04:16:06.730Z,66.03
2023-04-04T04:21:10.951Z,65.26
2023-04-04T04:26:13.431Z,64.83
2023-04-04T04:31:16.274Z,64.37
2023-04-04T04:36:23.078Z,65.92
2023-04-04T04:41:36.955Z,63.53
2023-04-04T04:46:39.613Z,64.91
2023-04-04T04:51:49.318Z,64.49
2023-04-04T04:56:52.911Z,64.36
2023-04-04T05:01:56.016Z,64.35
2023-04-04T05:06:59.877Z,64.21
2023-04-04T05:12:02.856Z,64.45
2023-04-04T05:17:16.968Z,66.00
2023-04-04T05:22:19.702Z,65.10
2023-04-04T05:27:26.286Z,65.59
2023-04-04T05:32:33.176Z,64.15
2023-04-04T05:37:43.559Z,63.36
2023-04-04T05:43:02.262Z,57.09
2023-04-04T05:48:10.619Z,56.24
2023-04-04T05:53:23.170Z,56.50
2023-04-04T05:58:27.637Z,52.38
2023-04-04T06:03:32.956Z,47.31
2023-04-04T06:08:50.067Z,42.84
2023-04-04T06:13:55.329Z,40.47
2023-04-04T06:18:59.358Z,42.03
2023-04-04T06:24:02.200Z,44.37
2023-04-04T06:29:05.001Z,53.10
2023-04-04T06:34:10.630Z,54.55
2023-04-04T06:39:34.406Z,55.60
2023-04-04T06:44:40.052Z,57.43
2023-04-04T06:49:42.453Z,57.40
2023-04-04T06:54:45.980Z,55.67
2023-04-04T06:59:50.132Z,54.93
2023-04-04T07:04:52.421Z,56.75
2023-04-04T07:09:54.592Z,55.83
2023-04-04T07:14:57.820Z,55.31
2023-04-04T07:20:00.882Z,56.42
2023-04-04T07:25:04.163Z,56.26
2023-04-04T07:30:07.269Z,56.31
2023-04-04T07:35:10.063Z,56.07
2023-04-04T07:40:13.266Z,55.27
2023-04-04T07:45:15.599Z,54.71
2023-04-04T07:50:17.815Z,53.89
2023-04-04T07:55:20.424Z,53.21
2023-04-04T08:00:25.953Z,53.18
2023-04-04T08:05:28.606Z,54.11
2023-04-04T08:10:30.869Z,53.25
2023-04-04T08:15:33.207Z,52.58
2023-04-04T08:20:35.966Z,53.61
2023-04-04T08:25:39.486Z,51.77
2023-04-04T08:30:42.008Z,53.01
2023-04-04T08:35:44.272Z,52.74
2023-04-04T08:40:48.210Z,51.49
2023-04-04T08:45:51.270Z,51.65
2023-04-04T08:50:57.183Z,51.24
2023-04-04T08:56:01.099Z,50.98
2023-04-04T09:01:03.377Z,51.10
2023-04-04T09:06:06.429Z,50.60
2023-04-04T09:11:09.430Z,51.55
2023-04-04T09:16:11.798Z,50.28
2023-04-04T09:21:14.363Z,50.99
2023-04-04T09:26:17.014Z,49.37
2023-04-04T09:31:19.271Z,50.43
2023-04-04T09:36:21.643Z,50.25
2023-04-04T09:41:27.337Z,48.07
2023-04-04T09:46:30.087Z,49.01
2023-04-04T09:51:36.266Z,48.22
2023-04-04T09:56:39.516Z,47.47
2023-04-04T10:01:42.791Z,49.92
2023-04-04T10:06:45.610Z,47.17
2023-04-04T10:11:48.521Z,48.31
2023-04-04T10:16:57.594Z,47.73
2023-04-04T10:22:01.613Z,46.50
2023-04-04T10:27:04.015Z,47.34
2023-04-04T10:32:10.252Z,46.05
2023-04-04T10:37:27.742Z,46.50
2023-04-04T10:42:46.994Z,47.75
2023-04-04T10:47:50.898Z,48.72
2023-04-04T10:52:53.583Z,46.80
2023-04-04T10:57:57.054Z,47.29
2023-04-04T11:03:01.425Z,46.18
2023-04-04T11:08:09.426Z,46.97
2023-04-04T11:13:17.559Z,46.12
2023-04-04T11:18:45.481Z,47.56
2023-04-04T11:24:00.576Z,46.51
2023-04-04T11:29:08.033Z,45.53
2023-04-04T11:34:12.460Z,45.18
2023-04-04T11:39:29.915Z,44.78
2023-04-04T11:44:35.591Z,45.69
2023-04-04T11:49:41.217Z,46.14
2023-04-04T11:54:46.859Z,45.96
2023-04-04T11:59:51.897Z,45.77
2023-04-04T12:04:55.599Z,45.23
2023-04-04T12:09:58.899Z,44.44
2023-04-04T12:15:14.546Z,44.89
2023-04-04T12:20:24.585Z,47.44
2023-04-04T12:25:29.728Z,43.77
2023-04-04T12:30:33.233Z,45.97
2023-04-04T12:35:36.454Z,46.11
2023-04-04T12:40:40.133Z,46.53
2023-04-04T12:45:44.326Z,46.42
2023-04-04T12:50:54.413Z,46.53
2023-04-04T12:56:05.088Z,48.29
2023-04-04T13:01:08.484Z,46.33
2023-04-04T13:06:17.157Z,44.86
2023-04-04T13:11:20.373Z,45.99
2023-04-04T13:16:36.638Z,46.55
2023-04-04T13:21:40.841Z,45.76
2023-04-04T13:26:42.983Z,46.64
2023-04-04T13:31:45.185Z,45.64
2023-04-04T13:36:47.414Z,46.52
2023-04-04T13:41:50.340Z,45.48
2023-04-04T13:46:52.619Z,43.43
2023-04-04T13:51:54.905Z,45.14
2023-04-04T13:56:57.320Z,45.18
2023-04-04T14:01:59.590Z,43.53
2023-04-04T14:07:01.786Z,44.76
2023-04-04T14:12:04.053Z,44.91
2023-04-04T14:17:06.670Z,45.34
2023-04-04T14:22:08.805Z,45.07
2023-04-04T14:27:11.127Z,43.91
2023-04-04T14:32:13.408Z,44.19
2023-04-04T14:37:17.108Z,44.34
2023-04-04T14:42:19.423Z,44.32
2023-04-04T14:47:22.029Z,44.28
2023-04-04T14:52:24.388Z,43.90
2023-04-04T14:57:27.259Z,43.00
2023-04-04T15:02:30.436Z,42.86
2023-04-04T15:07:32.754Z,44.56
2023-04-04T15:12:35.117Z,42.72
2023-04-04T15:17:37.290Z,42.54
2023-04-04T15:22:41.583Z,43.99
2023-04-04T15:27:43.752Z,42.61
2023-04-04T15:32:45.985Z,42.89
2023-04-04T15:37:49.321Z,43.59
2023-04-04T15:42:51.586Z,42.76
2023-04-04T15:47:53.965Z,44.15
2023-04-04T15:52:56.318Z,43.60
2023-04-04T15:57:58.781Z,43.89
2023-04-04T16:03:01.492Z,44.11
2023-04-04T16:08:03.730Z,43.38
2023-04-04T16:13:06.357Z,43.55
2023-04-04T16:18:09.062Z,44.08
2023-04-04T16:23:11.356Z,45.18
2023-04-04T16:28:13.560Z,43.84
2023-04-04T16:33:15.799Z,44.15
2023-04-04T16:38:18.143Z,43.80
2023-04-04T16:43:20.379Z,44.97
2023-04-04T16:48:22.767Z,44.89
2023-04-04T16:53:25.156Z,45.83
2023-04-04T16:58:27.490Z,45.13
2023-04-04T17:03:29.862Z,46.61
2023-04-04T17:08:32.358Z,45.74
2023-04-04T17:13:35.557Z,45.46
2023-04-04T17:18:37.763Z,45.14
2023-04-04T17:23:40.029Z,45.44
2023-04-04T17:28:42.794Z,46.89
2023-04-04T17:33:46.247Z,46.87
2023-04-04T17:38:48.553Z,47.93
2023-04-04T17:43:52.156Z,47.66
2023-04-04T17:48:54.529Z,47.87
2023-04-04T17:53:56.793Z,48.57
2023-04-04T17:58:59.225Z,48.74
2023-04-04T18:04:01.466Z,48.98
2023-04-04T18:09:05.323Z,49.13
2023-04-04T18:14:08.629Z,49.02
2023-04-04T18:19:11.801Z,50.45
2023-04-04T18:24:14.518Z,51.57
2023-04-04T18:29:16.812Z,51.60
2023-04-04T18:34:18.986Z,51.44
2023-04-04T18:39:21.499Z,52.27
2023-04-04T18:44:23.845Z,51.79
2023-04-04T18:49:26.497Z,52.39
2023-04-04T18:54:29.064Z,54.23
2023-04-04T18:59:31.508Z,53.30
2023-04-04T19:04:36.096Z,53.05
2023-04-04T19:09:38.746Z,53.69
2023-04-04T19:14:40.856Z,53.86
2023-04-04T19:19:43.352Z,55.16
2023-04-04T19:24:45.704Z,54.94
2023-04-04T19:29:48.070Z,55.38
2023-04-04T19:34:50.530Z,55.54
2023-04-04T19:39:52.694Z,56.42
2023-04-04T19:44:54.800Z,56.96
2023-04-04T19:49:57.898Z,58.31
2023-04-04T19:55:00.017Z,59.35
2023-04-04T20:00:14.092Z,61.12
2023-04-04T20:05:35.134Z,60.50
2023-04-04T20:10:43.571Z,59.04
2023-04-04T20:15:46.476Z,59.88
2023-04-04T20:21:10.420Z,57.36
2023-04-04T20:26:34.437Z,56.83
2023-04-04T20:31:47.196Z,59.46
2023-04-04T20:36:49.606Z,61.40
2023-04-04T20:41:52.622Z,61.59
2023-04-04T20:46:56.050Z,62.05
2023-04-04T20:51:58.341Z,62.75
2023-04-04T20:57:00.461Z,62.80
2023-04-04T21:02:16.897Z,61.18
2023-04-04T21:07:36.260Z,63.16
2023-04-04T21:12:38.613Z,64.90
2023-04-04T21:17:41.027Z,63.94
2023-04-04T21:22:50.391Z,65.60
2023-04-04T21:27:56.219Z,65.20
2023-04-04T21:32:58.339Z,64.67
2023-04-04T21:38:00.598Z,66.10
2023-04-04T21:43:02.758Z,66.82
2023-04-04T21:48:04.984Z,65.22
2023-04-04T21:53:07.141Z,63.33
2023-04-04T21:58:09.298Z,67.03
2023-04-04T22:03:11.568Z,64.44
2023-04-04T22:08:13.783Z,66.28
2023-04-04T22:13:19.968Z,67.13
2023-04-04T22:18:30.539Z,64.13
2023-04-04T22:23:36.579Z,65.13
2023-04-04T22:28:39.149Z,64.08
2023-04-04T22:33:41.495Z,64.40
2023-04-04T22:38:43.954Z,67.14
2023-04-04T22:43:46.067Z,63.99
2023-04-04T22:48:48.395Z,62.75
2023-04-04T22:53:50.645Z,66.32
2023-04-04T22:58:53.292Z,67.90
2023-04-04T23:03:55.492Z,68.91
2023-04-04T23:08:58.908Z,64.94
2023-04-04T23:14:01.222Z,65.40
2023-04-04T23:19:04.120Z,66.82
2023-04-04T23:24:07.569Z,67.25
2023-04-04T23:29:10.004Z,67.99
2023-04-04T23:34:12.334Z,67.60
2023-04-04T23:39:15.934Z,69.24
2023-04-04T23:44:18.325Z,66.15
2023-04-04T23:49:20.980Z,68.41
2023-04-04T23:54:23.485Z,67.67
2023-04-04T23:59:26.098Z,69.04
